sensor_id;sensor_type;location;lat;lon;timestamp;P1;durP1;ratioP1;P2;durP2;ratioP2
70126;SDS011;57491;42.694;23.314;2023-03-14T00:00:14;16.40;;;8.70;;
70126;SDS011;57491;42.694;23.314;2023-03-14T00:02:42;13.38;;;5.88;;
70126;SDS011;57491;42.694;23.314;2023-03-14T00:05:10;9.32;;;5.57;;
70126;SDS011;57491;42.694;23.314;2023-03-14T00:07:38;8.90;;;5.57;;
70126;SDS011;57491;42.694;23.314;2023-03-14T00:10:07;7.50;;;4.78;;
70126;SDS011;57491;42.694;23.314;2023-03-14T00:12:36;11.02;;;5.20;;
70126;SDS011;57491;42.694;23.314;2023-03-14T00:15:03;10.38;;;5.85;;
70126;SDS011;57491;42.694;23.314;2023-03-14T00:17:32;15.60;;;5.50;;
70126;SDS011;57491;42.694;23.314;2023-03-14T00:19:59;10.20;;;5.18;;
70126;SDS011;57491;42.694;23.314;2023-03-14T00:22:31;9.00;;;5.90;;
70126;SDS011;57491;42.694;23.314;2023-03-14T00:24:58;10.75;;;5.35;;
70126;SDS011;57491;42.694;23.314;2023-03-14T00:27:25;10.07;;;6.57;;
70126;SDS011;57491;42.694;23.314;2023-03-14T00:29:52;10.60;;;6.05;;
70126;SDS011;57491;42.694;23.314;2023-03-14T00:32:19;7.80;;;5.45;;
70126;SDS011;57491;42.694;23.314;2023-03-14T00:34:46;8.95;;;5.53;;
70126;SDS011;57491;42.694;23.314;2023-03-14T00:37:13;8.60;;;5.70;;
70126;SDS011;57491;42.694;23.314;2023-03-14T00:39:42;12.65;;;6.13;;
70126;SDS011;57491;42.694;23.314;2023-03-14T00:42:09;9.07;;;5.80;;
70126;SDS011;57491;42.694;23.314;2023-03-14T00:44:36;8.43;;;5.25;;
70126;SDS011;57491;42.694;23.314;2023-03-14T00:47:04;12.77;;;5.68;;
70126;SDS011;57491;42.694;23.314;2023-03-14T00:49:31;8.70;;;4.97;;
70126;SDS011;57491;42.694;23.314;2023-03-14T00:51:58;8.32;;;5.05;;
70126;SDS011;57491;42.694;23.314;2023-03-14T00:54:25;9.80;;;5.63;;
70126;SDS011;57491;42.694;23.314;2023-03-14T00:56:54;8.05;;;4.82;;
70126;SDS011;57491;42.694;23.314;2023-03-14T00:59:21;8.38;;;4.55;;
70126;SDS011;57491;42.694;23.314;2023-03-14T01:01:48;8.23;;;5.07;;
70126;SDS011;57491;42.694;23.314;2023-03-14T01:04:16;8.30;;;4.77;;
70126;SDS011;57491;42.694;23.314;2023-03-14T01:06:43;7.90;;;5.32;;
70126;SDS011;57491;42.694;23.314;2023-03-14T01:09:10;9.32;;;5.65;;
70126;SDS011;57491;42.694;23.314;2023-03-14T01:11:37;10.18;;;5.80;;
70126;SDS011;57491;42.694;23.314;2023-03-14T01:14:05;8.33;;;5.47;;
70126;SDS011;57491;42.694;23.314;2023-03-14T01:16:33;9.63;;;4.88;;
70126;SDS011;57491;42.694;23.314;2023-03-14T01:19:01;9.57;;;5.10;;
70126;SDS011;57491;42.694;23.314;2023-03-14T01:21:30;6.85;;;4.57;;
70126;SDS011;57491;42.694;23.314;2023-03-14T01:23:59;8.85;;;4.55;;
70126;SDS011;57491;42.694;23.314;2023-03-14T01:26:27;8.05;;;4.97;;
70126;SDS011;57491;42.694;23.314;2023-03-14T01:28:56;10.23;;;4.72;;
70126;SDS011;57491;42.694;23.314;2023-03-14T01:31:26;7.38;;;4.60;;
70126;SDS011;57491;42.694;23.314;2023-03-14T01:33:53;6.88;;;4.35;;
70126;SDS011;57491;42.694;23.314;2023-03-14T01:36:21;7.40;;;4.70;;
70126;SDS011;57491;42.694;23.314;2023-03-14T01:38:48;9.10;;;5.70;;
70126;SDS011;57491;42.694;23.314;2023-03-14T01:41:16;9.90;;;5.07;;
70126;SDS011;57491;42.694;23.314;2023-03-14T01:43:45;10.35;;;5.00;;
70126;SDS011;57491;42.694;23.314;2023-03-14T01:46:15;9.20;;;4.72;;
70126;SDS011;57491;42.694;23.314;2023-03-14T01:49:05;8.60;;;4.70;;
70126;SDS011;57491;42.694;23.314;2023-03-14T01:54:10;9.70;;;5.03;;
70126;SDS011;57491;42.694;23.314;2023-03-14T01:56:41;14.70;;;8.05;;
70126;SDS011;57491;42.694;23.314;2023-03-14T01:59:12;17.65;;;10.23;;
70126;SDS011;57491;42.694;23.314;2023-03-14T02:01:39;24.95;;;12.63;;
70126;SDS011;57491;42.694;23.314;2023-03-14T02:04:10;21.05;;;12.25;;
70126;SDS011;57491;42.694;23.314;2023-03-14T02:06:41;23.92;;;13.38;;
70126;SDS011;57491;42.694;23.314;2023-03-14T02:09:13;22.88;;;13.52;;
70126;SDS011;57491;42.694;23.314;2023-03-14T02:11:41;25.48;;;14.50;;
70126;SDS011;57491;42.694;23.314;2023-03-14T02:14:08;27.20;;;14.35;;
70126;SDS011;57491;42.694;23.314;2023-03-14T02:16:40;28.00;;;13.65;;
70126;SDS011;57491;42.694;23.314;2023-03-14T02:19:08;21.67;;;12.80;;
70126;SDS011;57491;42.694;23.314;2023-03-14T02:21:42;26.67;;;13.15;;
70126;SDS011;57491;42.694;23.314;2023-03-14T02:24:17;24.65;;;13.10;;
70126;SDS011;57491;42.694;23.314;2023-03-14T02:27:10;26.17;;;12.52;;
70126;SDS011;57491;42.694;23.314;2023-03-14T02:29:40;23.60;;;12.85;;
70126;SDS011;57491;42.694;23.314;2023-03-14T02:32:17;20.98;;;12.98;;
70126;SDS011;57491;42.694;23.314;2023-03-14T02:34:46;23.08;;;12.88;;
70126;SDS011;57491;42.694;23.314;2023-03-14T02:37:17;21.48;;;12.43;;
70126;SDS011;57491;42.694;23.314;2023-03-14T02:39:47;25.02;;;13.15;;
70126;SDS011;57491;42.694;23.314;2023-03-14T02:42:16;28.95;;;12.88;;
70126;SDS011;57491;42.694;23.314;2023-03-14T02:44:51;24.15;;;13.43;;
70126;SDS011;57491;42.694;23.314;2023-03-14T02:47:21;28.48;;;13.95;;
70126;SDS011;57491;42.694;23.314;2023-03-14T02:49:53;27.52;;;13.77;;
70126;SDS011;57491;42.694;23.314;2023-03-14T02:52:27;23.02;;;13.20;;
70126;SDS011;57491;42.694;23.314;2023-03-14T02:54:55;21.63;;;13.00;;
70126;SDS011;57491;42.694;23.314;2023-03-14T02:57:23;20.00;;;12.20;;
70126;SDS011;57491;42.694;23.314;2023-03-14T02:59:50;21.45;;;11.52;;
70126;SDS011;57491;42.694;23.314;2023-03-14T03:02:17;25.63;;;13.10;;
70126;SDS011;57491;42.694;23.314;2023-03-14T03:04:45;19.92;;;12.18;;
70126;SDS011;57491;42.694;23.314;2023-03-14T03:07:12;23.08;;;12.15;;
70126;SDS011;57491;42.694;23.314;2023-03-14T03:09:39;23.65;;;12.35;;
70126;SDS011;57491;42.694;23.314;2023-03-14T03:12:06;23.83;;;12.87;;
70126;SDS011;57491;42.694;23.314;2023-03-14T03:14:34;20.23;;;12.10;;
70126;SDS011;57491;42.694;23.314;2023-03-14T03:17:02;21.30;;;13.73;;
70126;SDS011;57491;42.694;23.314;2023-03-14T03:19:30;26.27;;;13.83;;
70126;SDS011;57491;42.694;23.314;2023-03-14T03:21:57;26.83;;;13.93;;
70126;SDS011;57491;42.694;23.314;2023-03-14T03:24:24;24.23;;;14.20;;
70126;SDS011;57491;42.694;23.314;2023-03-14T03:26:51;20.93;;;12.67;;
70126;SDS011;57491;42.694;23.314;2023-03-14T03:29:19;25.15;;;14.38;;
70126;SDS011;57491;42.694;23.314;2023-03-14T03:31:47;25.95;;;14.23;;
70126;SDS011;57491;42.694;23.314;2023-03-14T03:34:14;22.80;;;14.38;;
70126;SDS011;57491;42.694;23.314;2023-03-14T03:36:41;26.17;;;13.60;;
70126;SDS011;57491;42.694;23.314;2023-03-14T03:39:08;27.92;;;15.15;;
70126;SDS011;57491;42.694;23.314;2023-03-14T03:41:35;32.08;;;17.02;;
70126;SDS011;57491;42.694;23.314;2023-03-14T03:44:03;23.92;;;14.10;;
70126;SDS011;57491;42.694;23.314;2023-03-14T03:46:31;25.08;;;14.77;;
70126;SDS011;57491;42.694;23.314;2023-03-14T03:49:00;25.03;;;13.87;;
70126;SDS011;57491;42.694;23.314;2023-03-14T03:51:27;29.67;;;12.95;;
70126;SDS011;57491;42.694;23.314;2023-03-14T03:53:55;22.83;;;12.90;;
70126;SDS011;57491;42.694;23.314;2023-03-14T03:56:22;22.35;;;11.60;;
70126;SDS011;57491;42.694;23.314;2023-03-14T03:58:49;20.23;;;13.40;;
70126;SDS011;57491;42.694;23.314;2023-03-14T04:01:16;22.65;;;13.25;;
70126;SDS011;57491;42.694;23.314;2023-03-14T04:03:43;23.80;;;14.48;;
70126;SDS011;57491;42.694;23.314;2023-03-14T04:06:12;25.65;;;13.07;;
70126;SDS011;57491;42.694;23.314;2023-03-14T04:08:40;30.05;;;12.50;;
70126;SDS011;57491;42.694;23.314;2023-03-14T04:11:07;25.10;;;12.63;;
70126;SDS011;57491;42.694;23.314;2023-03-14T04:13:34;22.90;;;12.30;;
70126;SDS011;57491;42.694;23.314;2023-03-14T04:16:01;22.33;;;13.20;;
70126;SDS011;57491;42.694;23.314;2023-03-14T04:18:28;23.95;;;12.57;;
70126;SDS011;57491;42.694;23.314;2023-03-14T04:20:56;26.80;;;14.07;;
70126;SDS011;57491;42.694;23.314;2023-03-14T04:25:52;24.25;;;12.80;;
70126;SDS011;57491;42.694;23.314;2023-03-14T04:28:20;24.02;;;11.63;;
70126;SDS011;57491;42.694;23.314;2023-03-14T04:30:47;22.67;;;12.88;;
70126;SDS011;57491;42.694;23.314;2023-03-14T04:33:14;21.40;;;12.70;;
70126;SDS011;57491;42.694;23.314;2023-03-14T04:35:42;24.05;;;13.60;;
70126;SDS011;57491;42.694;23.314;2023-03-14T04:38:09;25.03;;;12.00;;
70126;SDS011;57491;42.694;23.314;2023-03-14T04:40:38;26.17;;;11.63;;
70126;SDS011;57491;42.694;23.314;2023-03-14T04:43:06;28.98;;;12.27;;
70126;SDS011;57491;42.694;23.314;2023-03-14T04:45:35;24.38;;;13.95;;
70126;SDS011;57491;42.694;23.314;2023-03-14T04:48:02;24.35;;;12.80;;
70126;SDS011;57491;42.694;23.314;2023-03-14T04:50:29;19.83;;;12.57;;
70126;SDS011;57491;42.694;23.314;2023-03-14T04:52:56;19.85;;;11.52;;
70126;SDS011;57491;42.694;23.314;2023-03-14T04:55:23;19.87;;;11.43;;
70126;SDS011;57491;42.694;23.314;2023-03-14T04:57:51;24.40;;;12.25;;
70126;SDS011;57491;42.694;23.314;2023-03-14T05:00:18;21.33;;;12.48;;
70126;SDS011;57491;42.694;23.314;2023-03-14T05:02:46;20.88;;;11.38;;
70126;SDS011;57491;42.694;23.314;2023-03-14T05:05:13;21.00;;;12.23;;
70126;SDS011;57491;42.694;23.314;2023-03-14T05:07:40;18.90;;;12.43;;
70126;SDS011;57491;42.694;23.314;2023-03-14T05:10:07;27.42;;;12.88;;
70126;SDS011;57491;42.694;23.314;2023-03-14T05:12:35;23.42;;;13.65;;
70126;SDS011;57491;42.694;23.314;2023-03-14T05:15:04;35.60;;;14.15;;
70126;SDS011;57491;42.694;23.314;2023-03-14T05:17:32;27.48;;;13.27;;
70126;SDS011;57491;42.694;23.314;2023-03-14T05:19:59;27.57;;;14.67;;
70126;SDS011;57491;42.694;23.314;2023-03-14T05:22:26;26.23;;;15.27;;
70126;SDS011;57491;42.694;23.314;2023-03-14T05:24:53;25.88;;;13.80;;
70126;SDS011;57491;42.694;23.314;2023-03-14T05:27:22;25.00;;;14.77;;
70126;SDS011;57491;42.694;23.314;2023-03-14T05:29:49;22.83;;;13.82;;
70126;SDS011;57491;42.694;23.314;2023-03-14T05:32:17;29.30;;;15.63;;
70126;SDS011;57491;42.694;23.314;2023-03-14T05:34:44;31.42;;;16.85;;
70126;SDS011;57491;42.694;23.314;2023-03-14T05:37:11;31.02;;;16.17;;
70126;SDS011;57491;42.694;23.314;2023-03-14T05:39:38;29.83;;;16.65;;
70126;SDS011;57491;42.694;23.314;2023-03-14T05:42:05;28.45;;;15.65;;
70126;SDS011;57491;42.694;23.314;2023-03-14T05:44:32;28.88;;;14.93;;
70126;SDS011;57491;42.694;23.314;2023-03-14T05:47:00;30.85;;;14.52;;
70126;SDS011;57491;42.694;23.314;2023-03-14T05:49:28;26.05;;;14.63;;
70126;SDS011;57491;42.694;23.314;2023-03-14T05:51:55;24.88;;;14.30;;
70126;SDS011;57491;42.694;23.314;2023-03-14T05:54:22;18.90;;;12.10;;
70126;SDS011;57491;42.694;23.314;2023-03-14T05:56:49;31.20;;;14.45;;
70126;SDS011;57491;42.694;23.314;2023-03-14T05:59:16;22.13;;;14.38;;
70126;SDS011;57491;42.694;23.314;2023-03-14T06:01:43;24.05;;;15.30;;
70126;SDS011;57491;42.694;23.314;2023-03-14T06:04:10;25.73;;;13.27;;
70126;SDS011;57491;42.694;23.314;2023-03-14T06:06:39;22.80;;;14.32;;
70126;SDS011;57491;42.694;23.314;2023-03-14T06:09:07;26.98;;;14.05;;
70126;SDS011;57491;42.694;23.314;2023-03-14T06:11:34;30.77;;;14.80;;
70126;SDS011;57491;42.694;23.314;2023-03-14T06:14:01;24.15;;;13.85;;
70126;SDS011;57491;42.694;23.314;2023-03-14T06:16:28;27.35;;;14.13;;
70126;SDS011;57491;42.694;23.314;2023-03-14T06:18:55;25.88;;;14.38;;
70126;SDS011;57491;42.694;23.314;2023-03-14T06:21:22;21.77;;;13.20;;
70126;SDS011;57491;42.694;23.314;2023-03-14T06:23:51;30.10;;;14.57;;
70126;SDS011;57491;42.694;23.314;2023-03-14T06:26:18;31.42;;;15.07;;
70126;SDS011;57491;42.694;23.314;2023-03-14T06:28:45;31.17;;;16.92;;
70126;SDS011;57491;42.694;23.314;2023-03-14T06:31:12;33.05;;;15.57;;
70126;SDS011;57491;42.694;23.314;2023-03-14T06:33:39;35.17;;;16.45;;
70126;SDS011;57491;42.694;23.314;2023-03-14T06:36:06;27.98;;;15.65;;
70126;SDS011;57491;42.694;23.314;2023-03-14T06:38:34;26.55;;;15.82;;
70126;SDS011;57491;42.694;23.314;2023-03-14T06:41:04;31.92;;;15.85;;
70126;SDS011;57491;42.694;23.314;2023-03-14T06:43:32;29.83;;;17.83;;
70126;SDS011;57491;42.694;23.314;2023-03-14T06:45:59;30.07;;;16.40;;
70126;SDS011;57491;42.694;23.314;2023-03-14T06:48:26;23.58;;;15.65;;
70126;SDS011;57491;42.694;23.314;2023-03-14T06:50:53;29.27;;;16.75;;
70126;SDS011;57491;42.694;23.314;2023-03-14T06:53:20;32.05;;;18.85;;
70126;SDS011;57491;42.694;23.314;2023-03-14T06:55:47;30.97;;;16.33;;
70126;SDS011;57491;42.694;23.314;2023-03-14T06:58:16;28.73;;;16.25;;
70126;SDS011;57491;42.694;23.314;2023-03-14T07:00:43;31.73;;;16.42;;
70126;SDS011;57491;42.694;23.314;2023-03-14T07:03:10;27.05;;;16.52;;
70126;SDS011;57491;42.694;23.314;2023-03-14T07:08:05;23.00;;;14.30;;
70126;SDS011;57491;42.694;23.314;2023-03-14T07:10:33;27.83;;;15.23;;
70126;SDS011;57491;42.694;23.314;2023-03-14T07:13:00;22.58;;;14.15;;
70126;SDS011;57491;42.694;23.314;2023-03-14T07:15:28;23.02;;;14.02;;
70126;SDS011;57491;42.694;23.314;2023-03-14T07:17:55;22.45;;;13.82;;
70126;SDS011;57491;42.694;23.314;2023-03-14T07:20:22;24.95;;;13.40;;
70126;SDS011;57491;42.694;23.314;2023-03-14T07:22:50;30.90;;;15.45;;
70126;SDS011;57491;42.694;23.314;2023-03-14T07:25:17;29.35;;;13.88;;
70126;SDS011;57491;42.694;23.314;2023-03-14T07:27:44;24.25;;;14.25;;
70126;SDS011;57491;42.694;23.314;2023-03-14T07:30:13;26.27;;;14.57;;
70126;SDS011;57491;42.694;23.314;2023-03-14T07:32:42;24.58;;;14.55;;
70126;SDS011;57491;42.694;23.314;2023-03-14T07:35:09;32.85;;;17.48;;
70126;SDS011;57491;42.694;23.314;2023-03-14T07:37:36;29.80;;;16.15;;
70126;SDS011;57491;42.694;23.314;2023-03-14T07:40:03;28.65;;;16.15;;
70126;SDS011;57491;42.694;23.314;2023-03-14T07:42:32;25.77;;;16.15;;
70126;SDS011;57491;42.694;23.314;2023-03-14T07:44:59;25.63;;;15.00;;
70126;SDS011;57491;42.694;23.314;2023-03-14T07:47:26;25.67;;;14.52;;
70126;SDS011;57491;42.694;23.314;2023-03-14T07:49:54;23.60;;;16.65;;
70126;SDS011;57491;42.694;23.314;2023-03-14T07:52:21;23.90;;;14.27;;
70126;SDS011;57491;42.694;23.314;2023-03-14T07:54:49;26.75;;;15.25;;
70126;SDS011;57491;42.694;23.314;2023-03-14T07:57:16;22.93;;;14.50;;
70126;SDS011;57491;42.694;23.314;2023-03-14T07:59:43;27.50;;;15.43;;
70126;SDS011;57491;42.694;23.314;2023-03-14T08:02:11;24.75;;;15.75;;
70126;SDS011;57491;42.694;23.314;2023-03-14T08:04:38;21.27;;;14.73;;
70126;SDS011;57491;42.694;23.314;2023-03-14T08:07:07;21.63;;;14.13;;
70126;SDS011;57491;42.694;23.314;2023-03-14T08:09:34;24.27;;;14.05;;
70126;SDS011;57491;42.694;23.314;2023-03-14T08:12:01;18.77;;;12.90;;
70126;SDS011;57491;42.694;23.314;2023-03-14T08:14:28;18.83;;;13.17;;
70126;SDS011;57491;42.694;23.314;2023-03-14T08:16:57;19.02;;;12.88;;
70126;SDS011;57491;42.694;23.314;2023-03-14T08:19:24;20.83;;;11.98;;
70126;SDS011;57491;42.694;23.314;2023-03-14T08:21:51;19.08;;;11.57;;
70126;SDS011;57491;42.694;23.314;2023-03-14T08:26:47;15.40;;;9.50;;
70126;SDS011;57491;42.694;23.314;2023-03-14T08:29:14;17.52;;;9.98;;
70126;SDS011;57491;42.694;23.314;2023-03-14T08:31:41;14.50;;;10.17;;
70126;SDS011;57491;42.694;23.314;2023-03-14T08:36:36;15.73;;;9.90;;
70126;SDS011;57491;42.694;23.314;2023-03-14T08:39:03;15.23;;;10.30;;
70126;SDS011;57491;42.694;23.314;2023-03-14T08:41:34;14.88;;;9.18;;
70126;SDS011;57491;42.694;23.314;2023-03-14T08:44:05;12.27;;;9.15;;
70126;SDS011;57491;42.694;23.314;2023-03-14T08:46:32;15.27;;;8.95;;
70126;SDS011;57491;42.694;23.314;2023-03-14T08:48:59;12.23;;;8.40;;
70126;SDS011;57491;42.694;23.314;2023-03-14T08:51:26;12.03;;;7.73;;
70126;SDS011;57491;42.694;23.314;2023-03-14T08:53:54;11.02;;;8.38;;
70126;SDS011;57491;42.694;23.314;2023-03-14T08:56:21;15.38;;;8.52;;
70126;SDS011;57491;42.694;23.314;2023-03-14T08:58:49;11.13;;;8.47;;
70126;SDS011;57491;42.694;23.314;2023-03-14T09:01:16;9.90;;;7.80;;
70126;SDS011;57491;42.694;23.314;2023-03-14T09:06:12;18.15;;;9.95;;
70126;SDS011;57491;42.694;23.314;2023-03-14T09:08:39;14.60;;;10.68;;
70126;SDS011;57491;42.694;23.314;2023-03-14T09:11:07;11.67;;;8.40;;
70126;SDS011;57491;42.694;23.314;2023-03-14T09:13:35;11.50;;;8.70;;
70126;SDS011;57491;42.694;23.314;2023-03-14T09:16:03;15.50;;;8.70;;
70126;SDS011;57491;42.694;23.314;2023-03-14T09:18:31;14.00;;;8.35;;
70126;SDS011;57491;42.694;23.314;2023-03-14T09:20:58;11.02;;;8.50;;
70126;SDS011;57491;42.694;23.314;2023-03-14T09:23:25;17.20;;;9.40;;
70126;SDS011;57491;42.694;23.314;2023-03-14T09:25:54;14.90;;;10.47;;
70126;SDS011;57491;42.694;23.314;2023-03-14T09:28:21;11.13;;;8.43;;
70126;SDS011;57491;42.694;23.314;2023-03-14T09:30:48;9.70;;;7.45;;
70126;SDS011;57491;42.694;23.314;2023-03-14T09:33:17;13.98;;;8.07;;
70126;SDS011;57491;42.694;23.314;2023-03-14T09:35:44;12.38;;;8.52;;
70126;SDS011;57491;42.694;23.314;2023-03-14T09:38:12;15.50;;;8.07;;
70126;SDS011;57491;42.694;23.314;2023-03-14T09:40:39;13.35;;;8.85;;
70126;SDS011;57491;42.694;23.314;2023-03-14T09:43:08;13.85;;;8.07;;
70126;SDS011;57491;42.694;23.314;2023-03-14T09:45:39;10.23;;;7.70;;
70126;SDS011;57491;42.694;23.314;2023-03-14T09:48:12;10.38;;;8.20;;
70126;SDS011;57491;42.694;23.314;2023-03-14T09:50:45;11.15;;;7.50;;
70126;SDS011;57491;42.694;23.314;2023-03-14T09:53:17;12.38;;;7.95;;
70126;SDS011;57491;42.694;23.314;2023-03-14T09:55:45;10.75;;;7.53;;
70126;SDS011;57491;42.694;23.314;2023-03-14T09:58:14;8.75;;;6.40;;
70126;SDS011;57491;42.694;23.314;2023-03-14T10:00:44;9.55;;;6.30;;
70126;SDS011;57491;42.694;23.314;2023-03-14T10:03:25;6.63;;;5.68;;
70126;SDS011;57491;42.694;23.314;2023-03-14T10:05:57;8.98;;;6.60;;
70126;SDS011;57491;42.694;23.314;2023-03-14T10:08:24;9.50;;;7.00;;
70126;SDS011;57491;42.694;23.314;2023-03-14T10:10:51;9.48;;;7.80;;
70126;SDS011;57491;42.694;23.314;2023-03-14T10:13:20;10.07;;;6.50;;
70126;SDS011;57491;42.694;23.314;2023-03-14T10:15:51;7.90;;;5.20;;
70126;SDS011;57491;42.694;23.314;2023-03-14T10:18:20;8.07;;;5.72;;
70126;SDS011;57491;42.694;23.314;2023-03-14T10:20:49;8.73;;;5.95;;
70126;SDS011;57491;42.694;23.314;2023-03-14T10:23:29;6.60;;;5.60;;
70126;SDS011;57491;42.694;23.314;2023-03-14T10:25:59;8.13;;;6.35;;
70126;SDS011;57491;42.694;23.314;2023-03-14T10:28:38;12.13;;;6.68;;
70126;SDS011;57491;42.694;23.314;2023-03-14T10:31:06;12.10;;;8.05;;
70126;SDS011;57491;42.694;23.314;2023-03-14T10:33:34;17.83;;;8.82;;
70126;SDS011;57491;42.694;23.314;2023-03-14T10:36:03;13.40;;;8.23;;
70126;SDS011;57491;42.694;23.314;2023-03-14T10:38:35;14.25;;;9.88;;
70126;SDS011;57491;42.694;23.314;2023-03-14T10:41:14;10.68;;;8.30;;
70126;SDS011;57491;42.694;23.314;2023-03-14T10:43:43;13.95;;;9.30;;
70126;SDS011;57491;42.694;23.314;2023-03-14T10:46:13;13.05;;;8.05;;
70126;SDS011;57491;42.694;23.314;2023-03-14T10:48:42;12.20;;;7.65;;
70126;SDS011;57491;42.694;23.314;2023-03-14T10:51:12;13.32;;;8.73;;
70126;SDS011;57491;42.694;23.314;2023-03-14T10:53:48;13.90;;;8.00;;
70126;SDS011;57491;42.694;23.314;2023-03-14T10:56:17;10.10;;;7.68;;
70126;SDS011;57491;42.694;23.314;2023-03-14T10:58:46;8.10;;;6.22;;
70126;SDS011;57491;42.694;23.314;2023-03-14T11:01:17;8.73;;;6.10;;
70126;SDS011;57491;42.694;23.314;2023-03-14T11:04:06;9.93;;;7.25;;
70126;SDS011;57491;42.694;23.314;2023-03-14T11:06:42;8.23;;;5.70;;
70126;SDS011;57491;42.694;23.314;2023-03-14T11:09:17;7.15;;;5.65;;
70126;SDS011;57491;42.694;23.314;2023-03-14T11:11:50;6.28;;;5.50;;
70126;SDS011;57491;42.694;23.314;2023-03-14T11:14:20;6.93;;;4.85;;
70126;SDS011;57491;42.694;23.314;2023-03-14T11:16:56;7.13;;;5.47;;
70126;SDS011;57491;42.694;23.314;2023-03-14T11:22:21;7.70;;;5.22;;
70126;SDS011;57491;42.694;23.314;2023-03-14T11:25:13;8.65;;;5.43;;
70126;SDS011;57491;42.694;23.314;2023-03-14T11:27:48;6.47;;;5.22;;
70126;SDS011;57491;42.694;23.314;2023-03-14T11:30:23;6.80;;;4.65;;
70126;SDS011;57491;42.694;23.314;2023-03-14T11:32:59;7.00;;;4.68;;
70126;SDS011;57491;42.694;23.314;2023-03-14T11:35:33;9.20;;;6.03;;
70126;SDS011;57491;42.694;23.314;2023-03-14T11:38:18;9.60;;;5.25;;
70126;SDS011;57491;42.694;23.314;2023-03-14T11:40:57;8.15;;;5.88;;
70126;SDS011;57491;42.694;23.314;2023-03-14T11:43:26;5.80;;;4.70;;
70126;SDS011;57491;42.694;23.314;2023-03-14T11:45:57;7.47;;;4.90;;
70126;SDS011;57491;42.694;23.314;2023-03-14T11:48:34;6.88;;;5.05;;
70126;SDS011;57491;42.694;23.314;2023-03-14T11:51:07;8.55;;;5.00;;
70126;SDS011;57491;42.694;23.314;2023-03-14T11:53:43;6.80;;;4.68;;
70126;SDS011;57491;42.694;23.314;2023-03-14T11:56:20;23.33;;;7.25;;
70126;SDS011;57491;42.694;23.314;2023-03-14T11:58:54;5.32;;;3.90;;
70126;SDS011;57491;42.694;23.314;2023-03-14T12:01:27;4.22;;;3.83;;
70126;SDS011;57491;42.694;23.314;2023-03-14T12:04:05;6.85;;;4.32;;
70126;SDS011;57491;42.694;23.314;2023-03-14T12:06:40;5.60;;;3.40;;
70126;SDS011;57491;42.694;23.314;2023-03-14T12:09:15;3.70;;;3.40;;
70126;SDS011;57491;42.694;23.314;2023-03-14T12:11:46;4.45;;;3.45;;
70126;SDS011;57491;42.694;23.314;2023-03-14T12:14:19;5.22;;;3.90;;
70126;SDS011;57491;42.694;23.314;2023-03-14T12:16:52;5.70;;;3.95;;
70126;SDS011;57491;42.694;23.314;2023-03-14T12:19:27;6.13;;;4.45;;
70126;SDS011;57491;42.694;23.314;2023-03-14T12:22:01;4.10;;;3.35;;
70126;SDS011;57491;42.694;23.314;2023-03-14T12:24:35;4.85;;;3.60;;
70126;SDS011;57491;42.694;23.314;2023-03-14T12:27:06;5.65;;;3.65;;
70126;SDS011;57491;42.694;23.314;2023-03-14T12:32:26;5.05;;;3.88;;
70126;SDS011;57491;42.694;23.314;2023-03-14T12:34:53;6.55;;;4.22;;
70126;SDS011;57491;42.694;23.314;2023-03-14T12:37:23;8.07;;;4.28;;
70126;SDS011;57491;42.694;23.314;2023-03-14T12:39:59;5.70;;;3.80;;
70126;SDS011;57491;42.694;23.314;2023-03-14T12:42:45;7.25;;;4.22;;
70126;SDS011;57491;42.694;23.314;2023-03-14T12:45:24;7.13;;;4.38;;
70126;SDS011;57491;42.694;23.314;2023-03-14T12:50:53;5.60;;;3.15;;
70126;SDS011;57491;42.694;23.314;2023-03-14T12:56:26;5.45;;;3.08;;
70126;SDS011;57491;42.694;23.314;2023-03-14T12:59:09;7.05;;;3.28;;
70126;SDS011;57491;42.694;23.314;2023-03-14T13:01:53;6.20;;;3.50;;
70126;SDS011;57491;42.694;23.314;2023-03-14T13:04:26;3.40;;;3.10;;
70126;SDS011;57491;42.694;23.314;2023-03-14T13:06:57;7.15;;;3.63;;
70126;SDS011;57491;42.694;23.314;2023-03-14T13:12:23;3.75;;;3.03;;
70126;SDS011;57491;42.694;23.314;2023-03-14T13:14:57;4.40;;;2.28;;
70126;SDS011;57491;42.694;23.314;2023-03-14T13:17:26;3.67;;;2.42;;
70126;SDS011;57491;42.694;23.314;2023-03-14T13:19:57;4.05;;;2.45;;
70126;SDS011;57491;42.694;23.314;2023-03-14T13:22:28;7.75;;;2.97;;
70126;SDS011;57491;42.694;23.314;2023-03-14T13:24:59;2.75;;;2.55;;
70126;SDS011;57491;42.694;23.314;2023-03-14T13:27:29;3.60;;;2.50;;
70126;SDS011;57491;42.694;23.314;2023-03-14T13:29:58;3.28;;;2.22;;
70126;SDS011;57491;42.694;23.314;2023-03-14T13:32:31;5.18;;;2.53;;
70126;SDS011;57491;42.694;23.314;2023-03-14T13:34:58;6.05;;;2.90;;
70126;SDS011;57491;42.694;23.314;2023-03-14T13:37:25;3.03;;;2.47;;
70126;SDS011;57491;42.694;23.314;2023-03-14T13:39:53;7.35;;;3.30;;
70126;SDS011;57491;42.694;23.314;2023-03-14T13:42:24;3.70;;;2.65;;
70126;SDS011;57491;42.694;23.314;2023-03-14T13:44:52;5.20;;;2.70;;
70126;SDS011;57491;42.694;23.314;2023-03-14T13:47:23;4.18;;;2.80;;
70126;SDS011;57491;42.694;23.314;2023-03-14T13:49:52;3.88;;;1.92;;
70126;SDS011;57491;42.694;23.314;2023-03-14T13:54:52;3.47;;;1.92;;
70126;SDS011;57491;42.694;23.314;2023-03-14T13:57:20;6.20;;;2.92;;
70126;SDS011;57491;42.694;23.314;2023-03-14T13:59:58;3.85;;;2.53;;
70126;SDS011;57491;42.694;23.314;2023-03-14T14:02:27;3.78;;;2.50;;
70126;SDS011;57491;42.694;23.314;2023-03-14T14:04:55;3.08;;;2.70;;
70126;SDS011;57491;42.694;23.314;2023-03-14T14:07:22;13.88;;;3.30;;
70126;SDS011;57491;42.694;23.314;2023-03-14T14:09:52;4.95;;;2.60;;
70126;SDS011;57491;42.694;23.314;2023-03-14T14:12:21;3.88;;;2.63;;
70126;SDS011;57491;42.694;23.314;2023-03-14T14:14:55;8.80;;;2.90;;
70126;SDS011;57491;42.694;23.314;2023-03-14T14:17:27;2.88;;;2.20;;
70126;SDS011;57491;42.694;23.314;2023-03-14T14:19:57;3.22;;;2.17;;
70126;SDS011;57491;42.694;23.314;2023-03-14T14:22:26;4.22;;;2.50;;
70126;SDS011;57491;42.694;23.314;2023-03-14T14:24:53;4.28;;;2.55;;
70126;SDS011;57491;42.694;23.314;2023-03-14T14:27:23;3.05;;;2.65;;
70126;SDS011;57491;42.694;23.314;2023-03-14T14:29:58;5.95;;;3.20;;
70126;SDS011;57491;42.694;23.314;2023-03-14T14:32:33;3.70;;;2.22;;
70126;SDS011;57491;42.694;23.314;2023-03-14T14:35:02;3.45;;;2.17;;
70126;SDS011;57491;42.694;23.314;2023-03-14T14:37:30;2.50;;;2.30;;
70126;SDS011;57491;42.694;23.314;2023-03-14T14:39:59;3.38;;;2.10;;
70126;SDS011;57491;42.694;23.314;2023-03-14T14:42:33;4.68;;;2.40;;
70126;SDS011;57491;42.694;23.314;2023-03-14T14:45:02;4.72;;;2.97;;
70126;SDS011;57491;42.694;23.314;2023-03-14T14:47:29;6.63;;;2.65;;
70126;SDS011;57491;42.694;23.314;2023-03-14T14:50:02;3.38;;;2.30;;
70126;SDS011;57491;42.694;23.314;2023-03-14T14:52:33;4.07;;;2.25;;
70126;SDS011;57491;42.694;23.314;2023-03-14T14:55:10;9.93;;;3.88;;
70126;SDS011;57491;42.694;23.314;2023-03-14T14:57:39;5.80;;;4.00;;
70126;SDS011;57491;42.694;23.314;2023-03-14T15:00:09;6.30;;;2.75;;
70126;SDS011;57491;42.694;23.314;2023-03-14T15:02:45;5.38;;;3.25;;
70126;SDS011;57491;42.694;23.314;2023-03-14T15:05:14;3.13;;;2.38;;